sensor_id;sensor_type;location;lat;lon;timestamp;pressure;altitude;pressure_sealevel;temperature;humidity
47080;BME280;33067;49.296;14.470;2023-05-22T00:02:20;96876.40;;;20.71;37.07
47080;BME280;33067;49.296;14.470;2023-05-22T00:04:45;96879.80;;;20.36;37.19
47080;BME280;33067;49.296;14.470;2023-05-22T00:07:11;96879.45;;;20.20;37.40
47080;BME280;33067;49.296;14.470;2023-05-22T00:09:36;96879.19;;;19.95;37.35
47080;BME280;33067;49.296;14.470;2023-05-22T00:12:02;96876.87;;;20.50;37.18
47080;BME280;33067;49.296;14.470;2023-05-22T00:14:27;96877.01;;;20.61;36.96
47080;BME280;33067;49.296;14.470;2023-05-22T00:16:52;96876.21;;;20.25;37.17
47080;BME280;33067;49.296;14.470;2023-05-22T00:19:18;96879.63;;;20.33;36.69
47080;BME280;33067;49.296;14.470;2023-05-22T00:21:44;96880.19;;;20.21;37.17
47080;BME280;33067;49.296;14.470;2023-05-22T00:24:10;96883.50;;;20.16;37.60
47080;BME280;33067;49.296;14.470;2023-05-22T00:26:35;96883.08;;;20.04;37.70
47080;BME280;33067;49.296;14.470;2023-05-22T00:29:00;96880.12;;;19.92;37.82
47080;BME280;33067;49.296;14.470;2023-05-22T00:31:25;96877.79;;;20.07;37.63
47080;BME280;33067;49.296;14.470;2023-05-22T00:33:51;96878.79;;;19.98;37.84
47080;BME280;33067;49.296;14.470;2023-05-22T00:36:16;96876.23;;;19.78;38.09
47080;BME280;33067;49.296;14.470;2023-05-22T00:38:42;96876.10;;;19.90;37.93
47080;BME280;33067;49.296;14.470;2023-05-22T00:41:07;96877.48;;;20.05;37.75
47080;BME280;33067;49.296;14.470;2023-05-22T00:43:33;96873.45;;;19.76;38.13
47080;BME280;33067;49.296;14.470;2023-05-22T00:45:58;96870.94;;;19.76;37.85
47080;BME280;33067;49.296;14.470;2023-05-22T00:48:24;96868.25;;;19.65;37.98
47080;BME280;33067;49.296;14.470;2023-05-22T00:50:50;96868.78;;;19.91;37.87
47080;BME280;33067;49.296;14.470;2023-05-22T00:53:15;96869.05;;;19.69;37.79
47080;BME280;33067;49.296;14.470;2023-05-22T00:55:41;96868.98;;;19.97;37.62
47080;BME280;33067;49.296;14.470;2023-05-22T00:58:07;96872.40;;;20.03;37.55
47080;BME280;33067;49.296;14.470;2023-05-22T01:00:32;96871.19;;;20.10;37.48
47080;BME280;33067;49.296;14.470;2023-05-22T01:02:57;96872.63;;;19.75;38.03
47080;BME280;33067;49.296;14.470;2023-05-22T01:05:22;96872.62;;;19.81;37.86
47080;BME280;33067;49.296;14.470;2023-05-22T01:07:48;96873.39;;;19.64;38.17
47080;BME280;33067;49.296;14.470;2023-05-22T01:10:13;96872.59;;;20.04;37.87
47080;BME280;33067;49.296;14.470;2023-05-22T01:12:46;96870.32;;;19.40;38.77
47080;BME280;33067;49.296;14.470;2023-05-22T01:15:12;96872.90;;;19.91;38.50
47080;BME280;33067;49.296;14.470;2023-05-22T01:17:36;96874.21;;;19.22;39.77
47080;BME280;33067;49.296;14.470;2023-05-22T01:20:04;96871.54;;;19.08;39.63
47080;BME280;33067;49.296;14.470;2023-05-22T01:22:30;96871.61;;;18.73;40.49
47080;BME280;33067;49.296;14.470;2023-05-22T01:27:26;96864.79;;;18.70;40.61
47080;BME280;33067;49.296;14.470;2023-05-22T01:29:42;96864.84;;;18.88;40.24
47080;BME280;33067;49.296;14.470;2023-05-22T01:32:04;96864.76;;;19.07;40.34
47080;BME280;33067;49.296;14.470;2023-05-22T01:34:30;96864.93;;;19.01;40.67
47080;BME280;33067;49.296;14.470;2023-05-22T01:36:55;96867.01;;;18.87;40.77
47080;BME280;33067;49.296;14.470;2023-05-22T01:39:21;96867.43;;;19.03;41.01
47080;BME280;33067;49.296;14.470;2023-05-22T01:41:46;96863.72;;;18.38;41.61
47080;BME280;33067;49.296;14.470;2023-05-22T01:44:10;96860.74;;;18.42;41.63
47080;BME280;33067;49.296;14.470;2023-05-22T01:46:35;96861.87;;;18.53;41.84
47080;BME280;33067;49.296;14.470;2023-05-22T01:49:01;96860.98;;;18.72;41.82
47080;BME280;33067;49.296;14.470;2023-05-22T01:51:36;96857.44;;;18.53;41.81
47080;BME280;33067;49.296;14.470;2023-05-22T01:54:00;96854.07;;;18.28;41.77
47080;BME280;33067;49.296;14.470;2023-05-22T01:56:22;96853.67;;;18.52;41.68
47080;BME280;33067;49.296;14.470;2023-05-22T01:58:47;96851.13;;;18.23;41.72
47080;BME280;33067;49.296;14.470;2023-05-22T02:01:09;96846.59;;;18.68;41.81
47080;BME280;33067;49.296;14.470;2023-05-22T02:03:34;96845.35;;;18.28;41.99
47080;BME280;33067;49.296;14.470;2023-05-22T02:06:00;96843.55;;;18.51;41.31
47080;BME280;33067;49.296;14.470;2023-05-22T02:08:24;96843.81;;;18.67;41.02
47080;BME280;33067;49.296;14.470;2023-05-22T02:13:01;96836.84;;;18.94;40.87
47080;BME280;33067;49.296;14.470;2023-05-22T02:15:26;96835.30;;;18.30;41.26
47080;BME280;33067;49.296;14.470;2023-05-22T02:17:51;96835.79;;;18.32;41.21
47080;BME280;33067;49.296;14.470;2023-05-22T02:20:17;96833.14;;;18.24;41.24
47080;BME280;33067;49.296;14.470;2023-05-22T02:22:42;96833.08;;;18.33;41.65
47080;BME280;33067;49.296;14.470;2023-05-22T02:25:08;96834.00;;;18.03;42.08
47080;BME280;33067;49.296;14.470;2023-05-22T02:27:33;96832.31;;;18.14;41.37
47080;BME280;33067;49.296;14.470;2023-05-22T02:29:59;96830.94;;;17.87;41.72
47080;BME280;33067;49.296;14.470;2023-05-22T02:32:23;96832.90;;;17.39;41.83
47080;BME280;33067;49.296;14.470;2023-05-22T02:34:49;96834.83;;;17.28;41.91
47080;BME280;33067;49.296;14.470;2023-05-22T02:37:14;96835.43;;;17.13;42.19
47080;BME280;33067;49.296;14.470;2023-05-22T02:39:40;96830.74;;;17.24;42.07
47080;BME280;33067;49.296;14.470;2023-05-22T02:42:06;96827.90;;;17.71;41.93
47080;BME280;33067;49.296;14.470;2023-05-22T02:44:31;96824.52;;;17.50;42.05
47080;BME280;33067;49.296;14.470;2023-05-22T02:46:57;96828.93;;;17.41;41.90
47080;BME280;33067;49.296;14.470;2023-05-22T02:49:22;96829.45;;;17.37;42.57
47080;BME280;33067;49.296;14.470;2023-05-22T02:51:47;96834.32;;;16.94;42.11
47080;BME280;33067;49.296;14.470;2023-05-22T02:54:14;96836.49;;;16.84;41.80
47080;BME280;33067;49.296;14.470;2023-05-22T02:56:38;96831.64;;;16.71;42.26
47080;BME280;33067;49.296;14.470;2023-05-22T02:59:03;96831.77;;;16.86;42.56
47080;BME280;33067;49.296;14.470;2023-05-22T03:01:30;96831.29;;;16.80;42.99
47080;BME280;33067;49.296;14.470;2023-05-22T03:03:56;96833.15;;;17.00;42.78
47080;BME280;33067;49.296;14.470;2023-05-22T03:06:20;96834.77;;;16.79;42.65
47080;BME280;33067;49.296;14.470;2023-05-22T03:08:45;96838.07;;;17.11;42.72
47080;BME280;33067;49.296;14.470;2023-05-22T03:11:11;96840.72;;;16.99;43.10
47080;BME280;33067;49.296;14.470;2023-05-22T03:13:37;96844.69;;;17.15;42.84
47080;BME280;33067;49.296;14.470;2023-05-22T03:16:03;96845.27;;;17.11;42.57
47080;BME280;33067;49.296;14.470;2023-05-22T03:18:28;96845.66;;;17.35;42.79
47080;BME280;33067;49.296;14.470;2023-05-22T03:20:53;96846.14;;;17.03;42.65
47080;BME280;33067;49.296;14.470;2023-05-22T03:23:18;96846.78;;;17.28;42.42
47080;BME280;33067;49.296;14.470;2023-05-22T03:25:45;96843.33;;;17.35;42.52
47080;BME280;33067;49.296;14.470;2023-05-22T03:28:09;96842.70;;;17.25;42.19
47080;BME280;33067;49.296;14.470;2023-05-22T03:30:35;96840.58;;;17.35;42.58
47080;BME280;33067;49.296;14.470;2023-05-22T03:33:00;96837.73;;;17.33;42.53
47080;BME280;33067;49.296;14.470;2023-05-22T03:35:25;96834.35;;;17.67;41.76
47080;BME280;33067;49.296;14.470;2023-05-22T03:37:51;96836.13;;;17.29;42.51
47080;BME280;33067;49.296;14.470;2023-05-22T03:40:17;96838.04;;;17.04;42.59
47080;BME280;33067;49.296;14.470;2023-05-22T03:42:42;96838.37;;;17.27;42.63
47080;BME280;33067;49.296;14.470;2023-05-22T03:45:08;96840.15;;;17.20;42.64
47080;BME280;33067;49.296;14.470;2023-05-22T03:47:33;96835.25;;;16.72;43.31
47080;BME280;33067;49.296;14.470;2023-05-22T03:49:58;96837.49;;;16.85;43.28
47080;BME280;33067;49.296;14.470;2023-05-22T03:52:24;96837.05;;;17.01;43.16
47080;BME280;33067;49.296;14.470;2023-05-22T03:54:50;96835.54;;;17.12;43.03
47080;BME280;33067;49.296;14.470;2023-05-22T03:57:15;96835.85;;;16.97;43.00
47080;BME280;33067;49.296;14.470;2023-05-22T03:59:40;96840.21;;;17.30;43.01
47080;BME280;33067;49.296;14.470;2023-05-22T04:02:06;96839.46;;;17.45;42.78
47080;BME280;33067;49.296;14.470;2023-05-22T04:04:33;96838.88;;;17.43;42.78
47080;BME280;33067;49.296;14.470;2023-05-22T04:06:57;96836.45;;;17.35;42.52
47080;BME280;33067;49.296;14.470;2023-05-22T04:09:25;96833.20;;;17.88;42.18
47080;BME280;33067;49.296;14.470;2023-05-22T04:11:48;96830.09;;;17.45;42.40
47080;BME280;33067;49.296;14.470;2023-05-22T04:14:14;96828.77;;;17.73;42.39
47080;BME280;33067;49.296;14.470;2023-05-22T04:16:38;96829.51;;;17.81;42.17
47080;BME280;33067;49.296;14.470;2023-05-22T04:19:04;96829.10;;;17.97;41.98
47080;BME280;33067;49.296;14.470;2023-05-22T04:21:30;96823.29;;;18.49;41.63
47080;BME280;33067;49.296;14.470;2023-05-22T04:23:55;96821.06;;;18.49;41.49
47080;BME280;33067;49.296;14.470;2023-05-22T04:26:20;96821.49;;;18.61;40.95
47080;BME280;33067;49.296;14.470;2023-05-22T04:28:45;96820.81;;;18.75;40.90
47080;BME280;33067;49.296;14.470;2023-05-22T04:31:11;96822.65;;;18.70;40.59
47080;BME280;33067;49.296;14.470;2023-05-22T04:33:36;96822.83;;;18.88;40.59
47080;BME280;33067;49.296;14.470;2023-05-22T04:36:01;96819.70;;;19.11;40.26
47080;BME280;33067;49.296;14.470;2023-05-22T04:38:27;96817.58;;;18.66;40.12
47080;BME280;33067;49.296;14.470;2023-05-22T04:40:52;96820.13;;;18.40;40.56
47080;BME280;33067;49.296;14.470;2023-05-22T04:43:17;96821.12;;;18.35;40.85
47080;BME280;33067;49.296;14.470;2023-05-22T04:45:42;96822.60;;;18.70;41.01
47080;BME280;33067;49.296;14.470;2023-05-22T04:48:07;96822.88;;;19.20;40.51
47080;BME280;33067;49.296;14.470;2023-05-22T04:50:33;96823.20;;;19.20;40.19
47080;BME280;33067;49.296;14.470;2023-05-22T04:52:59;96823.26;;;19.81;39.52
47080;BME280;33067;49.296;14.470;2023-05-22T04:55:24;96825.86;;;19.76;39.55
47080;BME280;33067;49.296;14.470;2023-05-22T04:57:49;96823.45;;;19.86;39.77
47080;BME280;33067;49.296;14.470;2023-05-22T05:00:15;96822.98;;;19.68;39.10
47080;BME280;33067;49.296;14.470;2023-05-22T05:02:40;96823.59;;;20.21;38.96
47080;BME280;33067;49.296;14.470;2023-05-22T05:05:05;96825.39;;;19.50;38.26
47080;BME280;33067;49.296;14.470;2023-05-22T05:07:30;96823.48;;;20.38;37.53
47080;BME280;33067;49.296;14.470;2023-05-22T05:09:55;96822.96;;;20.49;38.27
47080;BME280;33067;49.296;14.470;2023-05-22T05:12:21;96824.13;;;20.98;37.95
47080;BME280;33067;49.296;14.470;2023-05-22T05:14:47;96825.70;;;21.17;38.36
47080;BME280;33067;49.296;14.470;2023-05-22T05:17:13;96826.98;;;20.94;37.16
47080;BME280;33067;49.296;14.470;2023-05-22T05:19:38;96827.49;;;21.45;36.39
47080;BME280;33067;49.296;14.470;2023-05-22T05:22:04;96825.05;;;21.04;36.24
47080;BME280;33067;49.296;14.470;2023-05-22T05:24:29;96824.20;;;20.67;37.03
47080;BME280;33067;49.296;14.470;2023-05-22T05:26:56;96820.98;;;20.44;37.45
47080;BME280;33067;49.296;14.470;2023-05-22T05:29:20;96821.71;;;21.16;37.33
47080;BME280;33067;49.296;14.470;2023-05-22T05:31:46;96826.38;;;20.98;37.33
47080;BME280;33067;49.296;14.470;2023-05-22T05:34:11;96827.79;;;21.37;36.95
47080;BME280;33067;49.296;14.470;2023-05-22T05:36:37;96824.29;;;22.02;35.98
47080;BME280;33067;49.296;14.470;2023-05-22T05:39:02;96822.95;;;22.19;35.76
47080;BME280;33067;49.296;14.470;2023-05-22T05:41:28;96818.89;;;22.09;35.49
47080;BME280;33067;49.296;14.470;2023-05-22T05:43:53;96820.22;;;22.40;35.73
47080;BME280;33067;49.296;14.470;2023-05-22T05:46:19;96821.27;;;22.25;35.67
47080;BME280;33067;49.296;14.470;2023-05-22T05:48:44;96822.64;;;22.50;35.09
47080;BME280;33067;49.296;14.470;2023-05-22T05:51:10;96827.31;;;22.20;35.33
47080;BME280;33067;49.296;14.470;2023-05-22T05:53:35;96819.37;;;23.07;34.53
47080;BME280;33067;49.296;14.470;2023-05-22T05:56:00;96816.84;;;22.99;33.96
47080;BME280;33067;49.296;14.470;2023-05-22T05:58:26;96817.94;;;23.49;33.98
47080;BME280;33067;49.296;14.470;2023-05-22T06:00:52;96815.66;;;23.87;33.81
47080;BME280;33067;49.296;14.470;2023-05-22T06:03:17;96810.12;;;24.11;33.07
47080;BME280;33067;49.296;14.470;2023-05-22T06:05:44;96808.89;;;24.65;32.53
47080;BME280;33067;49.296;14.470;2023-05-22T06:08:09;96810.26;;;24.43;32.84
47080;BME280;33067;49.296;14.470;2023-05-22T06:10:34;96808.57;;;24.54;32.65
47080;BME280;33067;49.296;14.470;2023-05-22T06:12:59;96807.95;;;25.01;32.38
47080;BME280;33067;49.296;14.470;2023-05-22T06:15:24;96809.87;;;25.59;32.27
47080;BME280;33067;49.296;14.470;2023-05-22T06:17:50;96805.65;;;25.04;32.87
47080;BME280;33067;49.296;14.470;2023-05-22T06:20:15;96802.18;;;25.17;32.69
47080;BME280;33067;49.296;14.470;2023-05-22T06:22:41;96799.81;;;25.82;32.19
47080;BME280;33067;49.296;14.470;2023-05-22T06:25:08;96799.27;;;25.46;32.15
47080;BME280;33067;49.296;14.470;2023-05-22T06:27:33;96794.60;;;25.70;31.50
47080;BME280;33067;49.296;14.470;2023-05-22T06:29:58;96794.60;;;25.77;31.85
47080;BME280;33067;49.296;14.470;2023-05-22T06:32:24;96792.05;;;25.98;31.70
47080;BME280;33067;49.296;14.470;2023-05-22T06:34:49;96786.85;;;26.45;30.84
47080;BME280;33067;49.296;14.470;2023-05-22T06:37:15;96788.70;;;26.29;31.22
47080;BME280;33067;49.296;14.470;2023-05-22T06:39:41;96787.66;;;26.56;31.12
47080;BME280;33067;49.296;14.470;2023-05-22T06:42:06;96786.46;;;26.90;30.37
47080;BME280;33067;49.296;14.470;2023-05-22T06:44:32;96788.38;;;26.87;30.19
47080;BME280;33067;49.296;14.470;2023-05-22T06:46:58;96782.45;;;26.91;30.55
47080;BME280;33067;49.296;14.470;2023-05-22T06:49:23;96781.36;;;26.93;30.64
47080;BME280;33067;49.296;14.470;2023-05-22T06:51:49;96780.19;;;27.47;30.08
47080;BME280;33067;49.296;14.470;2023-05-22T06:54:15;96777.64;;;27.64;29.64
47080;BME280;33067;49.296;14.470;2023-05-22T06:56:40;96776.51;;;27.87;29.24
47080;BME280;33067;49.296;14.470;2023-05-22T06:59:06;96774.45;;;27.46;29.85
47080;BME280;33067;49.296;14.470;2023-05-22T07:01:31;96772.89;;;28.26;28.98
47080;BME280;33067;49.296;14.470;2023-05-22T07:03:57;96774.18;;;27.74;29.28
47080;BME280;33067;49.296;14.470;2023-05-22T07:06:23;96774.50;;;28.16;29.12
47080;BME280;33067;49.296;14.470;2023-05-22T07:08:48;96774.92;;;28.11;29.16
47080;BME280;33067;49.296;14.470;2023-05-22T07:11:14;96774.62;;;28.09;29.42
47080;BME280;33067;49.296;14.470;2023-05-22T07:13:40;96775.80;;;28.43;29.30
47080;BME280;33067;49.296;14.470;2023-05-22T07:16:06;96772.37;;;28.62;28.22
47080;BME280;33067;49.296;14.470;2023-05-22T07:18:31;96772.49;;;28.39;28.28
47080;BME280;33067;49.296;14.470;2023-05-22T07:20:57;96772.12;;;28.39;28.00
47080;BME280;33067;49.296;14.470;2023-05-22T07:23:22;96769.01;;;28.55;28.11
47080;BME280;33067;49.296;14.470;2023-05-22T07:25:47;96764.99;;;28.50;28.12
47080;BME280;33067;49.296;14.470;2023-05-22T07:28:12;96765.06;;;28.06;28.68
47080;BME280;33067;49.296;14.470;2023-05-22T07:30:38;96763.20;;;28.19;28.23
47080;BME280;33067;49.296;14.470;2023-05-22T07:33:04;96762.36;;;28.16;28.22
47080;BME280;33067;49.296;14.470;2023-05-22T07:35:29;96761.01;;;27.67;29.10
47080;BME280;33067;49.296;14.470;2023-05-22T07:37:54;96762.01;;;27.71;29.09
47080;BME280;33067;49.296;14.470;2023-05-22T07:40:20;96762.60;;;27.13;29.91
47080;BME280;33067;49.296;14.470;2023-05-22T07:42:46;96760.78;;;27.46;30.13
47080;BME280;33067;49.296;14.470;2023-05-22T07:45:10;96761.79;;;28.28;29.57
47080;BME280;33067;49.296;14.470;2023-05-22T07:47:36;96758.72;;;27.89;28.73
47080;BME280;33067;49.296;14.470;2023-05-22T07:50:01;96758.74;;;27.84;28.81
47080;BME280;33067;49.296;14.470;2023-05-22T07:52:27;96751.22;;;28.05;28.54
47080;BME280;33067;49.296;14.470;2023-05-22T07:54:52;96753.00;;;28.83;28.19
47080;BME280;33067;49.296;14.470;2023-05-22T07:57:18;96747.17;;;29.22;27.92
47080;BME280;33067;49.296;14.470;2023-05-22T07:59:43;96744.92;;;29.42;27.26
47080;BME280;33067;49.296;14.470;2023-05-22T08:02:09;96742.66;;;29.48;26.89
47080;BME280;33067;49.296;14.470;2023-05-22T08:04:35;96741.38;;;29.63;27.53
47080;BME280;33067;49.296;14.470;2023-05-22T08:06:59;96740.28;;;29.86;26.79
47080;BME280;33067;49.296;14.470;2023-05-22T08:09:25;96740.17;;;30.24;26.49
47080;BME280;33067;49.296;14.470;2023-05-22T08:11:50;96740.96;;;30.01;26.16
47080;BME280;33067;49.296;14.470;2023-05-22T08:14:16;96741.10;;;29.75;26.23
47080;BME280;33067;49.296;14.470;2023-05-22T08:16:41;96742.09;;;30.28;26.40
47080;BME280;33067;49.296;14.470;2023-05-22T08:19:06;96736.24;;;29.77;25.26
47080;BME280;33067;49.296;14.470;2023-05-22T08:21:32;96736.83;;;29.73;25.89
47080;BME280;33067;49.296;14.470;2023-05-22T08:23:58;96739.03;;;29.43;25.12
47080;BME280;33067;49.296;14.470;2023-05-22T08:26:23;96737.91;;;28.56;26.40
47080;BME280;33067;49.296;14.470;2023-05-22T08:28:48;96733.34;;;28.98;26.51
47080;BME280;33067;49.296;14.470;2023-05-22T08:31:14;96732.68;;;28.76;25.92
47080;BME280;33067;49.296;14.470;2023-05-22T08:33:39;96725.45;;;29.19;25.63
47080;BME280;33067;49.296;14.470;2023-05-22T08:36:05;96729.49;;;29.79;25.75
47080;BME280;33067;49.296;14.470;2023-05-22T08:38:31;96726.88;;;29.82;25.52
47080;BME280;33067;49.296;14.470;2023-05-22T08:40:57;96723.42;;;29.88;24.51
47080;BME280;33067;49.296;14.470;2023-05-22T08:43:21;96724.11;;;29.97;25.62
47080;BME280;33067;49.296;14.470;2023-05-22T08:45:49;96725.33;;;29.10;25.96
47080;BME280;33067;49.296;14.470;2023-05-22T08:48:12;96722.70;;;28.78;26.21
47080;BME280;33067;49.296;14.470;2023-05-22T08:50:40;96721.78;;;28.38;25.91
47080;BME280;33067;49.296;14.470;2023-05-22T08:53:07;96714.45;;;29.39;26.17
47080;BME280;33067;49.296;14.470;2023-05-22T08:55:29;96716.26;;;29.85;26.39
47080;BME280;33067;49.296;14.470;2023-05-22T08:57:55;96714.16;;;30.27;25.29
47080;BME280;33067;49.296;14.470;2023-05-22T09:00:21;96712.79;;;30.17;25.68
47080;BME280;33067;49.296;14.470;2023-05-22T09:02:45;96708.36;;;30.11;24.99
47080;BME280;33067;49.296;14.470;2023-05-22T09:05:11;96712.51;;;30.82;24.99
47080;BME280;33067;49.296;14.470;2023-05-22T09:07:36;96711.04;;;30.34;24.83
47080;BME280;33067;49.296;14.470;2023-05-22T09:10:02;96708.23;;;30.57;24.90
47080;BME280;33067;49.296;14.470;2023-05-22T09:12:28;96709.72;;;30.74;24.75
47080;BME280;33067;49.296;14.470;2023-05-22T09:14:53;96710.09;;;30.18;24.30
47080;BME280;33067;49.296;14.470;2023-05-22T09:17:19;96712.53;;;30.86;23.38
47080;BME280;33067;49.296;14.470;2023-05-22T09:19:45;96714.06;;;30.53;24.32
47080;BME280;33067;49.296;14.470;2023-05-22T09:22:09;96712.07;;;30.81;23.54
47080;BME280;33067;49.296;14.470;2023-05-22T09:24:37;96708.78;;;30.11;24.24
47080;BME280;33067;49.296;14.470;2023-05-22T09:27:02;96709.81;;;29.75;25.12
47080;BME280;33067;49.296;14.470;2023-05-22T09:29:25;96708.59;;;30.40;24.15
47080;BME280;33067;49.296;14.470;2023-05-22T09:31:51;96706.82;;;30.40;24.05
47080;BME280;33067;49.296;14.470;2023-05-22T09:34:18;96705.54;;;30.26;23.75
47080;BME280;33067;49.296;14.470;2023-05-22T09:36:42;96706.11;;;30.36;23.97
47080;BME280;33067;49.296;14.470;2023-05-22T09:39:07;96705.58;;;29.93;23.35
47080;BME280;33067;49.296;14.470;2023-05-22T09:41:35;96706.02;;;30.80;23.98
47080;BME280;33067;49.296;14.470;2023-05-22T09:43:59;96699.63;;;30.58;23.36
47080;BME280;33067;49.296;14.470;2023-05-22T09:46:24;96704.95;;;30.17;23.44
47080;BME280;33067;49.296;14.470;2023-05-22T09:48:51;96701.58;;;30.05;23.45
47080;BME280;33067;49.296;14.470;2023-05-22T09:51:15;96703.39;;;30.66;22.54
47080;BME280;33067;49.296;14.470;2023-05-22T09:53:42;96704.24;;;30.31;23.06
47080;BME280;33067;49.296;14.470;2023-05-22T09:56:11;96699.76;;;30.67;22.91
47080;BME280;33067;49.296;14.470;2023-05-22T09:58:32;96698.06;;;29.53;20.57
47080;BME280;33067;49.296;14.470;2023-05-22T10:00:57;96698.65;;;29.73;22.00
47080;BME280;33067;49.296;14.470;2023-05-22T10:03:24;96695.81;;;30.16;22.88
47080;BME280;33067;49.296;14.470;2023-05-22T10:05:50;96698.39;;;29.99;22.64
47080;BME280;33067;49.296;14.470;2023-05-22T10:08:17;96695.53;;;30.88;22.94
47080;BME280;33067;49.296;14.470;2023-05-22T10:10:40;96691.94;;;30.56;21.97
47080;BME280;33067;49.296;14.470;2023-05-22T10:13:04;96689.26;;;30.62;22.24
47080;BME280;33067;49.296;14.470;2023-05-22T10:15:29;96689.13;;;30.49;21.43
47080;BME280;33067;49.296;14.470;2023-05-22T10:17:55;96689.09;;;30.58;21.36
47080;BME280;33067;49.296;14.470;2023-05-22T10:20:20;96683.72;;;30.79;20.87
47080;BME280;33067;49.296;14.470;2023-05-22T10:22:47;96681.14;;;31.08;20.71
47080;BME280;33067;49.296;14.470;2023-05-22T10:25:12;96681.42;;;30.64;21.43
47080;BME280;33067;49.296;14.470;2023-05-22T10:27:38;96681.17;;;30.41;21.02
47080;BME280;33067;49.296;14.470;2023-05-22T10:30:12;96673.45;;;31.00;20.09
47080;BME280;33067;49.296;14.470;2023-05-22T10:32:34;96672.87;;;30.93;20.22
47080;BME280;33067;49.296;14.470;2023-05-22T10:35:04;96674.18;;;30.47;21.02
47080;BME280;33067;49.296;14.470;2023-05-22T10:37:33;96671.09;;;30.12;21.32
47080;BME280;33067;49.296;14.470;2023-05-22T10:39:53;96663.45;;;30.00;20.95
47080;BME280;33067;49.296;14.470;2023-05-22T10:42:12;96660.88;;;30.55;20.67
47080;BME280;33067;49.296;14.470;2023-05-22T10:44:38;96655.42;;;30.31;21.16
47080;BME280;33067;49.296;14.470;2023-05-22T10:47:07;96652.79;;;30.48;20.68
47080;BME280;33067;49.296;14.470;2023-05-22T10:49:28;96654.69;;;30.71;20.64
47080;BME280;33067;49.296;14.470;2023-05-22T10:51:55;96656.05;;;29.64;20.90
47080;BME280;33067;49.296;14.470;2023-05-22T10:54:18;96654.03;;;30.21;20.80
47080;BME280;33067;49.296;14.470;2023-05-22T10:56:44;96649.12;;;30.69;21.31
47080;BME280;33067;49.296;14.470;2023-05-22T10:59:09;96647.57;;;30.66;22.10
47080;BME280;33067;49.296;14.470;2023-05-22T11:01:35;96643.72;;;30.55;20.14
47080;BME280;33067;49.296;14.470;2023-05-22T11:04:09;96644.37;;;30.53;20.07
47080;BME280;33067;49.296;14.470;2023-05-22T11:06:33;96645.13;;;30.57;20.33
47080;BME280;33067;49.296;14.470;2023-05-22T11:08:55;96638.55;;;30.00;21.20
47080;BME280;33067;49.296;14.470;2023-05-22T11:11:18;96637.22;;;30.20;20.90
47080;BME280;33067;49.296;14.470;2023-05-22T11:13:50;96634.10;;;30.53;20.96
47080;BME280;33067;49.296;14.470;2023-05-22T11:16:09;96627.85;;;31.28;20.49
47080;BME280;33067;49.296;14.470;2023-05-22T11:18:34;96635.24;;;30.55;20.50
47080;BME280;33067;49.296;14.470;2023-05-22T11:21:00;96628.79;;;30.51;20.72
47080;BME280;33067;49.296;14.470;2023-05-22T11:23:26;96624.48;;;30.65;20.81
47080;BME280;33067;49.296;14.470;2023-05-22T11:25:51;96624.40;;;30.73;21.03
47080;BME280;33067;49.296;14.470;2023-05-22T11:28:17;96623.14;;;30.29;21.60
47080;BME280;33067;49.296;14.470;2023-05-22T11:30:43;96625.53;;;30.18;20.14
47080;BME280;33067;49.296;14.470;2023-05-22T11:33:08;96621.85;;;29.12;20.95
47080;BME280;33067;49.296;14.470;2023-05-22T11:35:33;96616.18;;;29.62;21.53
47080;BME280;33067;49.296;14.470;2023-05-22T11:38:03;96616.46;;;29.83;21.78
47080;BME280;33067;49.296;14.470;2023-05-22T11:40:26;96612.34;;;30.09;21.10
47080;BME280;33067;49.296;14.470;2023-05-22T11:42:51;96612.47;;;29.68;20.99
47080;BME280;33067;49.296;14.470;2023-05-22T11:45:16;96611.69;;;29.69;21.72
47080;BME280;33067;49.296;14.470;2023-05-22T11:47:42;96613.70;;;30.76;21.04
47080;BME280;33067;49.296;14.470;2023-05-22T11:50:09;96609.52;;;30.12;20.55
47080;BME280;33067;49.296;14.470;2023-05-22T11:52:34;96607.72;;;30.55;20.48
47080;BME280;33067;49.296;14.470;2023-05-22T11:54:59;96608.75;;;29.69;20.86
47080;BME280;33067;49.296;14.470;2023-05-22T11:57:24;96605.45;;;30.20;20.34
47080;BME280;33067;49.296;14.470;2023-05-22T11:59:49;96606.11;;;29.55;21.33
47080;BME280;33067;49.296;14.470;2023-05-22T12:02:15;96604.62;;;29.45;21.66
47080;BME280;33067;49.296;14.470;2023-05-22T12:04:41;96605.79;;;29.35;20.59
47080;BME280;33067;49.296;14.470;2023-05-22T12:07:07;96602.66;;;29.16;21.10
47080;BME280;33067;49.296;14.470;2023-05-22T12:09:32;96597.72;;;29.92;20.40
47080;BME280;33067;49.296;14.470;2023-05-22T12:11:58;96596.09;;;30.63;20.71
47080;BME280;33067;49.296;14.470;2023-05-22T12:14:25;96597.87;;;29.51;21.18
47080;BME280;33067;49.296;14.470;2023-05-22T12:16:51;96601.30;;;29.16;21.30
47080;BME280;33067;49.296;14.470;2023-05-22T12:19:16;96598.93;;;29.16;20.94
47080;BME280;33067;49.296;14.470;2023-05-22T12:21:40;96589.81;;;29.39;20.27
47080;BME280;33067;49.296;14.470;2023-05-22T12:24:16;96590.08;;;29.38;19.62
47080;BME280;33067;49.296;14.470;2023-05-22T12:29:08;96585.04;;;30.08;19.76
47080;BME280;33067;49.296;14.470;2023-05-22T12:31:23;96579.04;;;30.03;19.93
47080;BME280;33067;49.296;14.470;2023-05-22T12:33:48;96580.02;;;30.37;20.23
47080;BME280;33067;49.296;14.470;2023-05-22T12:36:13;96578.25;;;30.11;19.60
47080;BME280;33067;49.296;14.470;2023-05-22T12:38:39;96582.07;;;29.56;19.40
47080;BME280;33067;49.296;14.470;2023-05-22T12:41:05;96580.34;;;28.87;20.20
47080;BME280;33067;49.296;14.470;2023-05-22T12:43:30;96575.32;;;29.44;21.01
47080;BME280;33067;49.296;14.470;2023-05-22T12:45:55;96570.93;;;30.16;19.71
47080;BME280;33067;49.296;14.470;2023-05-22T12:48:21;96568.86;;;30.54;19.59